sensor_id;sensor_type;location;lat;lon;timestamp;P1;durP1;ratioP1;P2;durP2;ratioP2
43529;SDS011;55654;50.966;6.878;2023-07-31T00:02:12;12.75;;;5.50;;
43529;SDS011;55654;50.966;6.878;2023-07-31T00:04:38;15.68;;;5.00;;
43529;SDS011;55654;50.966;6.878;2023-07-31T00:07:06;16.25;;;5.40;;
43529;SDS011;55654;50.966;6.878;2023-07-31T00:09:33;18.58;;;5.03;;
43529;SDS011;55654;50.966;6.878;2023-07-31T00:11:59;14.00;;;5.15;;
43529;SDS011;55654;50.966;6.878;2023-07-31T00:14:25;13.95;;;5.45;;
43529;SDS011;55654;50.966;6.878;2023-07-31T00:16:51;15.88;;;5.25;;
43529;SDS011;55654;50.966;6.878;2023-07-31T00:19:17;14.70;;;5.80;;
43529;SDS011;55654;50.966;6.878;2023-07-31T00:21:43;15.77;;;5.45;;
43529;SDS011;55654;50.966;6.878;2023-07-31T00:24:09;19.60;;;6.63;;
43529;SDS011;55654;50.966;6.878;2023-07-31T00:26:35;16.15;;;5.65;;
43529;SDS011;55654;50.966;6.878;2023-07-31T00:29:01;18.58;;;5.43;;
43529;SDS011;55654;50.966;6.878;2023-07-31T00:31:27;14.45;;;6.70;;
43529;SDS011;55654;50.966;6.878;2023-07-31T00:33:53;17.85;;;5.32;;
43529;SDS011;55654;50.966;6.878;2023-07-31T00:36:19;14.70;;;5.47;;
43529;SDS011;55654;50.966;6.878;2023-07-31T00:38:45;11.63;;;4.95;;
43529;SDS011;55654;50.966;6.878;2023-07-31T00:41:11;15.52;;;5.35;;
43529;SDS011;55654;50.966;6.878;2023-07-31T00:43:37;12.80;;;5.60;;
43529;SDS011;55654;50.966;6.878;2023-07-31T00:46:03;18.02;;;6.45;;
43529;SDS011;55654;50.966;6.878;2023-07-31T00:48:32;15.32;;;4.97;;
43529;SDS011;55654;50.966;6.878;2023-07-31T00:51:01;12.90;;;4.75;;
43529;SDS011;55654;50.966;6.878;2023-07-31T00:53:29;13.45;;;4.88;;
43529;SDS011;55654;50.966;6.878;2023-07-31T00:55:58;12.60;;;4.93;;
43529;SDS011;55654;50.966;6.878;2023-07-31T00:58:24;19.23;;;4.85;;
43529;SDS011;55654;50.966;6.878;2023-07-31T01:00:56;8.73;;;4.25;;
43529;SDS011;55654;50.966;6.878;2023-07-31T01:03:24;10.13;;;4.03;;
43529;SDS011;55654;50.966;6.878;2023-07-31T01:11:17;10.95;;;3.55;;
43529;SDS011;55654;50.966;6.878;2023-07-31T01:13:47;8.73;;;3.78;;
43529;SDS011;55654;50.966;6.878;2023-07-31T01:16:14;10.52;;;4.68;;
43529;SDS011;55654;50.966;6.878;2023-07-31T01:18:39;11.48;;;3.63;;
43529;SDS011;55654;50.966;6.878;2023-07-31T01:26:28;6.00;;;3.28;;
43529;SDS011;55654;50.966;6.878;2023-07-31T01:31:40;12.25;;;3.90;;
43529;SDS011;55654;50.966;6.878;2023-07-31T01:34:07;10.15;;;3.60;;
43529;SDS011;55654;50.966;6.878;2023-07-31T01:36:34;9.93;;;3.88;;
43529;SDS011;55654;50.966;6.878;2023-07-31T01:39:00;10.07;;;3.63;;
43529;SDS011;55654;50.966;6.878;2023-07-31T01:41:27;7.65;;;3.00;;
43529;SDS011;55654;50.966;6.878;2023-07-31T01:43:53;11.82;;;3.45;;
43529;SDS011;55654;50.966;6.878;2023-07-31T01:46:21;9.65;;;3.72;;
43529;SDS011;55654;50.966;6.878;2023-07-31T01:48:50;10.38;;;3.55;;
43529;SDS011;55654;50.966;6.878;2023-07-31T01:51:16;9.60;;;3.50;;
43529;SDS011;55654;50.966;6.878;2023-07-31T01:53:44;10.68;;;3.55;;
43529;SDS011;55654;50.966;6.878;2023-07-31T01:56:10;5.03;;;2.60;;
43529;SDS011;55654;50.966;6.878;2023-07-31T01:58:39;8.60;;;3.35;;
43529;SDS011;55654;50.966;6.878;2023-07-31T02:01:05;10.70;;;4.18;;
43529;SDS011;55654;50.966;6.878;2023-07-31T02:03:31;9.90;;;2.63;;
43529;SDS011;55654;50.966;6.878;2023-07-31T02:05:57;4.72;;;2.47;;
43529;SDS011;55654;50.966;6.878;2023-07-31T02:08:23;8.90;;;2.90;;
43529;SDS011;55654;50.966;6.878;2023-07-31T02:10:49;9.23;;;3.25;;
43529;SDS011;55654;50.966;6.878;2023-07-31T02:13:14;9.10;;;3.38;;
43529;SDS011;55654;50.966;6.878;2023-07-31T02:15:40;7.40;;;3.10;;
43529;SDS011;55654;50.966;6.878;2023-07-31T02:18:06;8.30;;;3.25;;
43529;SDS011;55654;50.966;6.878;2023-07-31T02:20:33;9.18;;;3.63;;
43529;SDS011;55654;50.966;6.878;2023-07-31T02:23:00;7.47;;;3.13;;
43529;SDS011;55654;50.966;6.878;2023-07-31T02:25:26;6.50;;;2.92;;
43529;SDS011;55654;50.966;6.878;2023-07-31T02:27:52;5.40;;;2.75;;
43529;SDS011;55654;50.966;6.878;2023-07-31T02:30:18;9.23;;;3.15;;
43529;SDS011;55654;50.966;6.878;2023-07-31T02:32:48;8.85;;;3.50;;
43529;SDS011;55654;50.966;6.878;2023-07-31T02:35:17;7.15;;;3.08;;
43529;SDS011;55654;50.966;6.878;2023-07-31T02:37:43;10.95;;;3.40;;
43529;SDS011;55654;50.966;6.878;2023-07-31T02:40:09;8.55;;;3.05;;
43529;SDS011;55654;50.966;6.878;2023-07-31T02:42:35;15.30;;;3.97;;
43529;SDS011;55654;50.966;6.878;2023-07-31T02:45:01;10.55;;;2.65;;
43529;SDS011;55654;50.966;6.878;2023-07-31T02:47:27;8.27;;;3.50;;
43529;SDS011;55654;50.966;6.878;2023-07-31T02:49:55;6.82;;;3.00;;
43529;SDS011;55654;50.966;6.878;2023-07-31T02:52:21;7.45;;;3.90;;
43529;SDS011;55654;50.966;6.878;2023-07-31T02:54:47;14.00;;;3.40;;
43529;SDS011;55654;50.966;6.878;2023-07-31T02:57:13;12.18;;;3.50;;
43529;SDS011;55654;50.966;6.878;2023-07-31T02:59:41;6.53;;;2.83;;
43529;SDS011;55654;50.966;6.878;2023-07-31T03:02:09;8.43;;;3.72;;
43529;SDS011;55654;50.966;6.878;2023-07-31T03:04:38;14.82;;;3.92;;
43529;SDS011;55654;50.966;6.878;2023-07-31T03:07:07;7.85;;;3.63;;
43529;SDS011;55654;50.966;6.878;2023-07-31T03:09:35;7.28;;;3.45;;
43529;SDS011;55654;50.966;6.878;2023-07-31T03:12:01;9.73;;;3.53;;
43529;SDS011;55654;50.966;6.878;2023-07-31T03:14:28;7.75;;;3.25;;
43529;SDS011;55654;50.966;6.878;2023-07-31T03:16:54;8.50;;;3.17;;
43529;SDS011;55654;50.966;6.878;2023-07-31T03:19:20;8.25;;;3.28;;
43529;SDS011;55654;50.966;6.878;2023-07-31T03:21:46;8.85;;;3.28;;
43529;SDS011;55654;50.966;6.878;2023-07-31T03:24:14;9.63;;;3.58;;
43529;SDS011;55654;50.966;6.878;2023-07-31T03:26:40;9.38;;;3.25;;
43529;SDS011;55654;50.966;6.878;2023-07-31T03:29:06;11.10;;;3.25;;
43529;SDS011;55654;50.966;6.878;2023-07-31T03:31:33;12.90;;;3.55;;
43529;SDS011;55654;50.966;6.878;2023-07-31T03:33:59;10.93;;;3.28;;
43529;SDS011;55654;50.966;6.878;2023-07-31T03:36:27;7.70;;;3.10;;
43529;SDS011;55654;50.966;6.878;2023-07-31T03:38:56;8.13;;;3.25;;
43529;SDS011;55654;50.966;6.878;2023-07-31T03:41:21;11.35;;;3.67;;
43529;SDS011;55654;50.966;6.878;2023-07-31T03:43:49;13.38;;;4.15;;
43529;SDS011;55654;50.966;6.878;2023-07-31T03:46:17;8.75;;;3.55;;
43529;SDS011;55654;50.966;6.878;2023-07-31T03:48:43;11.82;;;3.90;;
43529;SDS011;55654;50.966;6.878;2023-07-31T03:51:09;6.55;;;3.58;;
43529;SDS011;55654;50.966;6.878;2023-07-31T03:53:35;14.57;;;3.95;;
43529;SDS011;55654;50.966;6.878;2023-07-31T03:56:00;9.13;;;3.85;;
43529;SDS011;55654;50.966;6.878;2023-07-31T03:58:26;8.90;;;3.90;;
43529;SDS011;55654;50.966;6.878;2023-07-31T04:00:52;7.38;;;3.47;;
43529;SDS011;55654;50.966;6.878;2023-07-31T04:03:19;8.05;;;3.60;;
43529;SDS011;55654;50.966;6.878;2023-07-31T04:05:45;13.73;;;5.07;;
43529;SDS011;55654;50.966;6.878;2023-07-31T04:08:11;13.48;;;4.35;;
43529;SDS011;55654;50.966;6.878;2023-07-31T04:10:39;9.27;;;4.70;;
43529;SDS011;55654;50.966;6.878;2023-07-31T04:13:05;12.98;;;5.00;;
43529;SDS011;55654;50.966;6.878;2023-07-31T04:15:31;9.43;;;4.25;;
43529;SDS011;55654;50.966;6.878;2023-07-31T04:17:57;14.05;;;5.05;;
43529;SDS011;55654;50.966;6.878;2023-07-31T04:20:23;13.05;;;5.07;;
43529;SDS011;55654;50.966;6.878;2023-07-31T04:22:49;9.88;;;5.10;;
43529;SDS011;55654;50.966;6.878;2023-07-31T04:25:15;8.82;;;4.78;;
43529;SDS011;55654;50.966;6.878;2023-07-31T04:27:44;11.52;;;5.57;;
43529;SDS011;55654;50.966;6.878;2023-07-31T04:30:09;15.35;;;4.75;;
43529;SDS011;55654;50.966;6.878;2023-07-31T04:32:36;8.20;;;4.65;;
43529;SDS011;55654;50.966;6.878;2023-07-31T04:35:02;13.55;;;4.50;;
43529;SDS011;55654;50.966;6.878;2023-07-31T04:37:30;11.48;;;4.50;;
43529;SDS011;55654;50.966;6.878;2023-07-31T04:39:57;9.15;;;4.22;;
43529;SDS011;55654;50.966;6.878;2023-07-31T04:42:23;12.60;;;4.53;;
43529;SDS011;55654;50.966;6.878;2023-07-31T04:44:49;12.35;;;4.72;;
43529;SDS011;55654;50.966;6.878;2023-07-31T04:47:20;11.57;;;4.60;;
43529;SDS011;55654;50.966;6.878;2023-07-31T04:49:46;13.65;;;4.72;;
43529;SDS011;55654;50.966;6.878;2023-07-31T04:52:12;10.18;;;4.60;;
43529;SDS011;55654;50.966;6.878;2023-07-31T04:54:38;11.50;;;4.65;;
43529;SDS011;55654;50.966;6.878;2023-07-31T04:57:05;9.15;;;4.15;;
43529;SDS011;55654;50.966;6.878;2023-07-31T04:59:31;10.48;;;4.18;;
43529;SDS011;55654;50.966;6.878;2023-07-31T05:01:57;9.95;;;4.93;;
43529;SDS011;55654;50.966;6.878;2023-07-31T05:04:23;8.05;;;4.07;;
43529;SDS011;55654;50.966;6.878;2023-07-31T05:06:49;7.28;;;3.88;;
43529;SDS011;55654;50.966;6.878;2023-07-31T05:09:15;7.72;;;3.85;;
43529;SDS011;55654;50.966;6.878;2023-07-31T05:11:41;7.50;;;3.85;;
43529;SDS011;55654;50.966;6.878;2023-07-31T05:14:08;6.95;;;4.15;;
43529;SDS011;55654;50.966;6.878;2023-07-31T05:16:34;14.02;;;3.53;;
43529;SDS011;55654;50.966;6.878;2023-07-31T05:19:00;9.90;;;4.18;;
43529;SDS011;55654;50.966;6.878;2023-07-31T05:21:26;7.50;;;3.50;;
43529;SDS011;55654;50.966;6.878;2023-07-31T05:23:52;5.88;;;3.83;;
43529;SDS011;55654;50.966;6.878;2023-07-31T05:26:18;5.97;;;3.70;;
43529;SDS011;55654;50.966;6.878;2023-07-31T05:28:44;11.48;;;3.47;;
43529;SDS011;55654;50.966;6.878;2023-07-31T05:31:10;9.90;;;3.72;;
43529;SDS011;55654;50.966;6.878;2023-07-31T05:33:36;7.65;;;3.42;;
43529;SDS011;55654;50.966;6.878;2023-07-31T05:36:02;8.55;;;3.97;;
43529;SDS011;55654;50.966;6.878;2023-07-31T05:38:28;8.93;;;3.50;;
43529;SDS011;55654;50.966;6.878;2023-07-31T05:40:57;10.50;;;3.92;;
43529;SDS011;55654;50.966;6.878;2023-07-31T05:43:23;9.07;;;3.78;;
43529;SDS011;55654;50.966;6.878;2023-07-31T05:45:49;10.30;;;3.90;;
43529;SDS011;55654;50.966;6.878;2023-07-31T05:48:15;8.55;;;3.63;;
43529;SDS011;55654;50.966;6.878;2023-07-31T05:50:43;5.75;;;3.45;;
43529;SDS011;55654;50.966;6.878;2023-07-31T05:53:09;11.02;;;3.40;;
43529;SDS011;55654;50.966;6.878;2023-07-31T05:55:36;7.65;;;3.53;;
43529;SDS011;55654;50.966;6.878;2023-07-31T05:58:02;8.25;;;4.10;;
43529;SDS011;55654;50.966;6.878;2023-07-31T06:00:28;9.13;;;3.78;;
43529;SDS011;55654;50.966;6.878;2023-07-31T06:02:54;7.95;;;3.88;;
43529;SDS011;55654;50.966;6.878;2023-07-31T06:05:20;11.98;;;4.18;;
43529;SDS011;55654;50.966;6.878;2023-07-31T06:07:46;13.05;;;3.95;;
43529;SDS011;55654;50.966;6.878;2023-07-31T06:10:12;9.75;;;4.65;;
43529;SDS011;55654;50.966;6.878;2023-07-31T06:12:40;10.43;;;4.97;;
43529;SDS011;55654;50.966;6.878;2023-07-31T06:15:06;7.97;;;4.18;;
43529;SDS011;55654;50.966;6.878;2023-07-31T06:17:32;8.35;;;4.07;;
43529;SDS011;55654;50.966;6.878;2023-07-31T06:20:01;7.07;;;4.22;;
43529;SDS011;55654;50.966;6.878;2023-07-31T06:22:32;8.50;;;4.13;;
43529;SDS011;55654;50.966;6.878;2023-07-31T06:24:58;8.43;;;5.07;;
43529;SDS011;55654;50.966;6.878;2023-07-31T06:27:24;11.90;;;4.72;;
43529;SDS011;55654;50.966;6.878;2023-07-31T06:29:50;12.45;;;4.95;;
43529;SDS011;55654;50.966;6.878;2023-07-31T06:32:16;10.30;;;5.07;;
43529;SDS011;55654;50.966;6.878;2023-07-31T06:34:42;10.10;;;4.22;;
43529;SDS011;55654;50.966;6.878;2023-07-31T06:37:08;8.50;;;4.82;;
43529;SDS011;55654;50.966;6.878;2023-07-31T06:39:34;9.82;;;4.40;;
43529;SDS011;55654;50.966;6.878;2023-07-31T06:42:00;10.40;;;5.00;;
43529;SDS011;55654;50.966;6.878;2023-07-31T06:44:26;13.68;;;5.18;;
43529;SDS011;55654;50.966;6.878;2023-07-31T06:46:55;12.15;;;5.93;;
43529;SDS011;55654;50.966;6.878;2023-07-31T06:49:21;12.60;;;5.18;;
43529;SDS011;55654;50.966;6.878;2023-07-31T06:51:47;14.73;;;5.78;;
43529;SDS011;55654;50.966;6.878;2023-07-31T06:54:12;10.95;;;4.90;;
43529;SDS011;55654;50.966;6.878;2023-07-31T06:56:38;11.60;;;5.10;;
43529;SDS011;55654;50.966;6.878;2023-07-31T06:59:04;11.48;;;4.95;;
43529;SDS011;55654;50.966;6.878;2023-07-31T07:01:30;10.68;;;4.70;;
43529;SDS011;55654;50.966;6.878;2023-07-31T07:03:59;12.75;;;4.93;;
43529;SDS011;55654;50.966;6.878;2023-07-31T07:06:25;8.35;;;4.68;;
43529;SDS011;55654;50.966;6.878;2023-07-31T07:08:50;8.52;;;4.82;;
43529;SDS011;55654;50.966;6.878;2023-07-31T07:11:16;11.38;;;4.97;;
43529;SDS011;55654;50.966;6.878;2023-07-31T07:13:42;12.27;;;4.25;;
43529;SDS011;55654;50.966;6.878;2023-07-31T07:16:08;15.15;;;4.00;;
43529;SDS011;55654;50.966;6.878;2023-07-31T07:18:38;10.05;;;4.70;;
43529;SDS011;55654;50.966;6.878;2023-07-31T07:21:06;10.20;;;4.63;;
43529;SDS011;55654;50.966;6.878;2023-07-31T07:23:32;8.93;;;4.38;;
43529;SDS011;55654;50.966;6.878;2023-07-31T07:25:58;11.60;;;5.25;;
43529;SDS011;55654;50.966;6.878;2023-07-31T07:28:24;11.80;;;5.22;;
43529;SDS011;55654;50.966;6.878;2023-07-31T07:30:56;10.93;;;5.20;;
43529;SDS011;55654;50.966;6.878;2023-07-31T07:33:25;14.80;;;5.97;;
43529;SDS011;55654;50.966;6.878;2023-07-31T07:35:51;11.32;;;4.05;;
43529;SDS011;55654;50.966;6.878;2023-07-31T07:38:17;14.18;;;5.00;;
43529;SDS011;55654;50.966;6.878;2023-07-31T07:40:44;11.88;;;5.10;;
43529;SDS011;55654;50.966;6.878;2023-07-31T07:43:11;9.10;;;4.13;;
43529;SDS011;55654;50.966;6.878;2023-07-31T07:45:37;12.95;;;4.63;;
43529;SDS011;55654;50.966;6.878;2023-07-31T07:48:03;9.70;;;4.82;;
43529;SDS011;55654;50.966;6.878;2023-07-31T07:50:32;10.07;;;3.95;;
43529;SDS011;55654;50.966;6.878;2023-07-31T07:52:58;11.88;;;5.10;;
43529;SDS011;55654;50.966;6.878;2023-07-31T07:55:24;9.70;;;5.10;;
43529;SDS011;55654;50.966;6.878;2023-07-31T07:57:50;15.43;;;4.75;;
43529;SDS011;55654;50.966;6.878;2023-07-31T08:00:16;11.23;;;4.25;;
43529;SDS011;55654;50.966;6.878;2023-07-31T08:02:44;7.63;;;3.50;;
43529;SDS011;55654;50.966;6.878;2023-07-31T08:05:15;7.60;;;4.28;;
43529;SDS011;55654;50.966;6.878;2023-07-31T08:07:42;11.45;;;4.20;;
43529;SDS011;55654;50.966;6.878;2023-07-31T08:10:08;10.13;;;4.35;;
43529;SDS011;55654;50.966;6.878;2023-07-31T08:12:34;10.30;;;4.18;;
43529;SDS011;55654;50.966;6.878;2023-07-31T08:15:00;9.52;;;4.43;;
43529;SDS011;55654;50.966;6.878;2023-07-31T08:17:26;10.50;;;4.25;;
43529;SDS011;55654;50.966;6.878;2023-07-31T08:19:52;7.55;;;4.20;;
43529;SDS011;55654;50.966;6.878;2023-07-31T08:22:18;8.93;;;4.32;;
43529;SDS011;55654;50.966;6.878;2023-07-31T08:24:46;13.63;;;4.05;;
43529;SDS011;55654;50.966;6.878;2023-07-31T08:27:12;14.75;;;4.78;;
43529;SDS011;55654;50.966;6.878;2023-07-31T08:29:38;10.13;;;4.25;;
43529;SDS011;55654;50.966;6.878;2023-07-31T08:32:04;13.00;;;4.70;;
43529;SDS011;55654;50.966;6.878;2023-07-31T08:34:33;11.68;;;4.75;;
43529;SDS011;55654;50.966;6.878;2023-07-31T08:36:59;12.57;;;4.85;;
43529;SDS011;55654;50.966;6.878;2023-07-31T08:39:25;11.73;;;5.30;;
43529;SDS011;55654;50.966;6.878;2023-07-31T08:41:51;6.72;;;3.50;;
43529;SDS011;55654;50.966;6.878;2023-07-31T08:44:25;8.55;;;4.07;;
43529;SDS011;55654;50.966;6.878;2023-07-31T08:46:53;6.95;;;4.05;;
43529;SDS011;55654;50.966;6.878;2023-07-31T08:49:20;7.20;;;4.40;;
43529;SDS011;55654;50.966;6.878;2023-07-31T08:51:48;8.02;;;4.18;;
43529;SDS011;55654;50.966;6.878;2023-07-31T08:54:15;8.98;;;4.50;;
43529;SDS011;55654;50.966;6.878;2023-07-31T08:56:41;8.77;;;3.95;;
43529;SDS011;55654;50.966;6.878;2023-07-31T08:59:07;7.78;;;3.10;;
43529;SDS011;55654;50.966;6.878;2023-07-31T09:01:38;6.55;;;3.25;;
43529;SDS011;55654;50.966;6.878;2023-07-31T09:04:05;9.90;;;3.63;;
43529;SDS011;55654;50.966;6.878;2023-07-31T09:06:32;7.75;;;2.45;;
43529;SDS011;55654;50.966;6.878;2023-07-31T09:08:58;8.48;;;3.25;;
43529;SDS011;55654;50.966;6.878;2023-07-31T09:11:24;5.15;;;2.35;;
43529;SDS011;55654;50.966;6.878;2023-07-31T09:13:51;10.77;;;3.28;;
43529;SDS011;55654;50.966;6.878;2023-07-31T09:16:17;9.93;;;3.10;;
43529;SDS011;55654;50.966;6.878;2023-07-31T09:18:56;5.63;;;2.80;;
43529;SDS011;55654;50.966;6.878;2023-07-31T09:21:23;7.95;;;2.97;;
43529;SDS011;55654;50.966;6.878;2023-07-31T09:23:49;4.97;;;2.75;;
43529;SDS011;55654;50.966;6.878;2023-07-31T09:26:35;7.13;;;3.17;;
43529;SDS011;55654;50.966;6.878;2023-07-31T09:29:04;7.47;;;2.88;;
43529;SDS011;55654;50.966;6.878;2023-07-31T09:31:38;6.78;;;3.15;;
43529;SDS011;55654;50.966;6.878;2023-07-31T09:34:04;7.43;;;3.35;;
43529;SDS011;55654;50.966;6.878;2023-07-31T09:36:32;6.75;;;2.83;;
43529;SDS011;55654;50.966;6.878;2023-07-31T09:39:05;8.13;;;2.75;;
43529;SDS011;55654;50.966;6.878;2023-07-31T09:41:31;4.63;;;2.97;;
43529;SDS011;55654;50.966;6.878;2023-07-31T09:43:57;7.93;;;2.95;;
43529;SDS011;55654;50.966;6.878;2023-07-31T09:46:23;4.63;;;2.55;;
43529;SDS011;55654;50.966;6.878;2023-07-31T09:48:52;4.80;;;2.55;;
43529;SDS011;55654;50.966;6.878;2023-07-31T09:51:25;5.13;;;2.75;;
43529;SDS011;55654;50.966;6.878;2023-07-31T09:53:52;6.32;;;2.70;;
43529;SDS011;55654;50.966;6.878;2023-07-31T09:56:20;6.50;;;2.45;;
43529;SDS011;55654;50.966;6.878;2023-07-31T09:58:49;4.00;;;2.40;;
43529;SDS011;55654;50.966;6.878;2023-07-31T10:01:18;6.22;;;3.05;;
43529;SDS011;55654;50.966;6.878;2023-07-31T10:03:46;7.05;;;2.55;;
43529;SDS011;55654;50.966;6.878;2023-07-31T10:06:15;7.30;;;2.42;;
43529;SDS011;55654;50.966;6.878;2023-07-31T10:08:43;5.60;;;2.10;;
43529;SDS011;55654;50.966;6.878;2023-07-31T10:11:11;5.43;;;2.38;;
43529;SDS011;55654;50.966;6.878;2023-07-31T10:13:39;5.57;;;2.53;;
43529;SDS011;55654;50.966;6.878;2023-07-31T10:16:05;4.20;;;2.10;;
43529;SDS011;55654;50.966;6.878;2023-07-31T10:18:31;4.88;;;2.03;;
43529;SDS011;55654;50.966;6.878;2023-07-31T10:21:00;4.30;;;2.22;;
43529;SDS011;55654;50.966;6.878;2023-07-31T10:23:27;4.47;;;2.30;;
43529;SDS011;55654;50.966;6.878;2023-07-31T10:25:53;6.50;;;2.30;;
43529;SDS011;55654;50.966;6.878;2023-07-31T10:28:19;4.18;;;2.20;;
43529;SDS011;55654;50.966;6.878;2023-07-31T10:30:46;7.35;;;2.25;;
43529;SDS011;55654;50.966;6.878;2023-07-31T10:33:12;5.57;;;2.20;;
43529;SDS011;55654;50.966;6.878;2023-07-31T10:35:38;5.57;;;1.92;;
43529;SDS011;55654;50.966;6.878;2023-07-31T10:38:11;5.25;;;2.58;;
43529;SDS011;55654;50.966;6.878;2023-07-31T10:40:37;3.17;;;2.30;;
43529;SDS011;55654;50.966;6.878;2023-07-31T10:43:06;3.28;;;1.80;;
43529;SDS011;55654;50.966;6.878;2023-07-31T10:50:29;3.15;;;1.75;;
43529;SDS011;55654;50.966;6.878;2023-07-31T10:52:57;4.53;;;2.03;;
43529;SDS011;55654;50.966;6.878;2023-07-31T10:57:56;6.70;;;2.05;;
43529;SDS011;55654;50.966;6.878;2023-07-31T11:00:25;3.38;;;1.63;;
43529;SDS011;55654;50.966;6.878;2023-07-31T11:08:17;3.78;;;1.60;;
43529;SDS011;55654;50.966;6.878;2023-07-31T11:10:44;3.80;;;1.50;;
43529;SDS011;55654;50.966;6.878;2023-07-31T11:13:11;3.45;;;1.80;;
43529;SDS011;55654;50.966;6.878;2023-07-31T11:15:37;2.90;;;1.30;;
43529;SDS011;55654;50.966;6.878;2023-07-31T11:18:03;4.85;;;1.80;;
43529;SDS011;55654;50.966;6.878;2023-07-31T11:20:30;4.80;;;1.50;;
43529;SDS011;55654;50.966;6.878;2023-07-31T11:23:04;1.58;;;1.00;;
43529;SDS011;55654;50.966;6.878;2023-07-31T11:25:31;1.40;;;0.75;;
43529;SDS011;55654;50.966;6.878;2023-07-31T11:28:01;1.83;;;0.98;;
43529;SDS011;55654;50.966;6.878;2023-07-31T11:30:27;1.73;;;0.60;;
43529;SDS011;55654;50.966;6.878;2023-07-31T11:32:54;1.77;;;0.80;;
43529;SDS011;55654;50.966;6.878;2023-07-31T11:35:20;2.00;;;0.73;;
43529;SDS011;55654;50.966;6.878;2023-07-31T11:37:47;0.60;;;0.40;;
43529;SDS011;55654;50.966;6.878;2023-07-31T11:40:13;3.42;;;0.90;;
43529;SDS011;55654;50.966;6.878;2023-07-31T11:42:40;2.70;;;0.85;;
43529;SDS011;55654;50.966;6.878;2023-07-31T11:45:09;1.15;;;0.50;;
43529;SDS011;55654;50.966;6.878;2023-07-31T11:47:36;1.27;;;0.40;;
43529;SDS011;55654;50.966;6.878;2023-07-31T11:50:06;1.85;;;0.88;;
43529;SDS011;55654;50.966;6.878;2023-07-31T11:52:37;4.80;;;0.70;;
43529;SDS011;55654;50.966;6.878;2023-07-31T11:55:06;0.82;;;0.70;;
43529;SDS011;55654;50.966;6.878;2023-07-31T11:57:34;0.82;;;0.47;;
43529;SDS011;55654;50.966;6.878;2023-07-31T12:00:00;1.27;;;0.55;;
43529;SDS011;55654;50.966;6.878;2023-07-31T12:02:27;0.82;;;0.50;;
43529;SDS011;55654;50.966;6.878;2023-07-31T12:04:53;1.13;;;0.45;;
43529;SDS011;55654;50.966;6.878;2023-07-31T12:07:19;1.42;;;0.70;;
43529;SDS011;55654;50.966;6.878;2023-07-31T12:09:55;1.00;;;0.77;;
43529;SDS011;55654;50.966;6.878;2023-07-31T12:12:21;1.63;;;1.10;;
43529;SDS011;55654;50.966;6.878;2023-07-31T12:14:48;1.55;;;0.70;;
43529;SDS011;55654;50.966;6.878;2023-07-31T12:17:15;1.50;;;0.65;;
43529;SDS011;55654;50.966;6.878;2023-07-31T12:19:44;0.68;;;0.60;;
43529;SDS011;55654;50.966;6.878;2023-07-31T12:22:13;4.20;;;0.60;;
43529;SDS011;55654;50.966;6.878;2023-07-31T12:24:42;1.50;;;0.60;;
43529;SDS011;55654;50.966;6.878;2023-07-31T12:27:11;4.18;;;0.98;;
43529;SDS011;55654;50.966;6.878;2023-07-31T12:29:38;1.38;;;1.00;;
43529;SDS011;55654;50.966;6.878;2023-07-31T12:32:07;2.67;;;1.13;;
43529;SDS011;55654;50.966;6.878;2023-07-31T12:34:43;2.15;;;1.40;;
43529;SDS011;55654;50.966;6.878;2023-07-31T12:37:09;1.30;;;1.10;;
43529;SDS011;55654;50.966;6.878;2023-07-31T12:39:35;1.92;;;1.35;;
43529;SDS011;55654;50.966;6.878;2023-07-31T12:42:01;3.00;;;1.50;;
43529;SDS011;55654;50.966;6.878;2023-07-31T12:44:27;1.92;;;1.27;;
43529;SDS011;55654;50.966;6.878;2023-07-31T12:46:53;2.70;;;1.40;;
43529;SDS011;55654;50.966;6.878;2023-07-31T12:49:21;3.08;;;1.48;;
43529;SDS011;55654;50.966;6.878;2023-07-31T12:51:48;2.10;;;1.40;;
43529;SDS011;55654;50.966;6.878;2023-07-31T12:54:14;2.13;;;1.50;;
43529;SDS011;55654;50.966;6.878;2023-07-31T12:56:40;1.80;;;1.10;;
43529;SDS011;55654;50.966;6.878;2023-07-31T12:59:06;3.75;;;1.63;;
43529;SDS011;55654;50.966;6.878;2023-07-31T13:01:32;1.95;;;1.42;;
43529;SDS011;55654;50.966;6.878;2023-07-31T13:03:58;2.22;;;1.23;;
43529;SDS011;55654;50.966;6.878;2023-07-31T13:06:24;3.80;;;1.95;;
43529;SDS011;55654;50.966;6.878;2023-07-31T13:08:51;5.75;;;2.03;;
43529;SDS011;55654;50.966;6.878;2023-07-31T13:11:19;4.35;;;1.88;;
43529;SDS011;55654;50.966;6.878;2023-07-31T13:13:45;3.15;;;1.75;;
43529;SDS011;55654;50.966;6.878;2023-07-31T13:16:11;2.22;;;1.60;;
43529;SDS011;55654;50.966;6.878;2023-07-31T13:18:37;4.03;;;2.03;;
43529;SDS011;55654;50.966;6.878;2023-07-31T13:21:03;2.75;;;1.67;;
43529;SDS011;55654;50.966;6.878;2023-07-31T13:23:29;2.97;;;1.55;;
43529;SDS011;55654;50.966;6.878;2023-07-31T13:25:55;3.95;;;1.90;;
43529;SDS011;55654;50.966;6.878;2023-07-31T13:28:23;3.28;;;1.80;;
43529;SDS011;55654;50.966;6.878;2023-07-31T13:30:49;3.47;;;1.80;;
43529;SDS011;55654;50.966;6.878;2023-07-31T13:33:15;5.13;;;1.67;;
43529;SDS011;55654;50.966;6.878;2023-07-31T13:35:41;3.47;;;2.05;;
43529;SDS011;55654;50.966;6.878;2023-07-31T13:38:07;2.60;;;1.60;;
43529;SDS011;55654;50.966;6.878;2023-07-31T13:40:36;3.03;;;1.88;;
43529;SDS011;55654;50.966;6.878;2023-07-31T13:43:02;3.92;;;1.60;;
43529;SDS011;55654;50.966;6.878;2023-07-31T13:45:28;4.93;;;2.45;;
43529;SDS011;55654;50.966;6.878;2023-07-31T13:47:54;6.93;;;1.70;;
43529;SDS011;55654;50.966;6.878;2023-07-31T13:50:23;3.67;;;1.75;;
43529;SDS011;55654;50.966;6.878;2023-07-31T13:52:50;2.78;;;1.30;;
43529;SDS011;55654;50.966;6.878;2023-07-31T13:55:16;2.28;;;1.60;;
43529;SDS011;55654;50.966;6.878;2023-07-31T13:57:42;2.22;;;1.63;;
43529;SDS011;55654;50.966;6.878;2023-07-31T14:00:08;2.72;;;1.75;;
43529;SDS011;55654;50.966;6.878;2023-07-31T14:02:34;2.40;;;1.50;;
43529;SDS011;55654;50.966;6.878;2023-07-31T14:05:00;4.95;;;1.88;;
43529;SDS011;55654;50.966;6.878;2023-07-31T14:07:28;5.25;;;1.88;;
43529;SDS011;55654;50.966;6.878;2023-07-31T14:09:54;2.40;;;1.67;;
43529;SDS011;55654;50.966;6.878;2023-07-31T14:12:20;2.50;;;1.67;;
43529;SDS011;55654;50.966;6.878;2023-07-31T14:14:48;2.80;;;1.50;;
43529;SDS011;55654;50.966;6.878;2023-07-31T14:17:14;2.08;;;1.40;;
43529;SDS011;55654;50.966;6.878;2023-07-31T14:19:41;3.58;;;2.13;;
43529;SDS011;55654;50.966;6.878;2023-07-31T14:22:07;1.92;;;1.35;;
43529;SDS011;55654;50.966;6.878;2023-07-31T14:24:33;5.53;;;1.60;;
43529;SDS011;55654;50.966;6.878;2023-07-31T14:26:59;4.97;;;1.52;;
43529;SDS011;55654;50.966;6.878;2023-07-31T14:29:27;3.72;;;2.20;;
43529;SDS011;55654;50.966;6.878;2023-07-31T14:31:55;4.40;;;1.85;;
43529;SDS011;55654;50.966;6.878;2023-07-31T14:34:22;3.08;;;1.45;;
43529;SDS011;55654;50.966;6.878;2023-07-31T14:36:47;3.15;;;2.05;;
43529;SDS011;55654;50.966;6.878;2023-07-31T14:39:13;3.75;;;2.35;;
43529;SDS011;55654;50.966;6.878;2023-07-31T14:41:39;3.70;;;1.88;;
43529;SDS011;55654;50.966;6.878;2023-07-31T14:44:05;3.42;;;1.83;;
43529;SDS011;55654;50.966;6.878;2023-07-31T14:46:32;4.68;;;2.55;;
43529;SDS011;55654;50.966;6.878;2023-07-31T14:48:57;3.67;;;2.28;;
43529;SDS011;55654;50.966;6.878;2023-07-31T14:51:26;3.58;;;2.20;;
43529;SDS011;55654;50.966;6.878;2023-07-31T14:53:54;8.38;;;2.85;;
43529;SDS011;55654;50.966;6.878;2023-07-31T14:56:20;3.55;;;2.28;;
43529;SDS011;55654;50.966;6.878;2023-07-31T14:58:48;4.07;;;2.72;;
43529;SDS011;55654;50.966;6.878;2023-07-31T15:01:14;6.85;;;2.92;;
43529;SDS011;55654;50.966;6.878;2023-07-31T15:03:40;4.75;;;2.78;;
43529;SDS011;55654;50.966;6.878;2023-07-31T15:06:06;5.53;;;2.55;;
43529;SDS011;55654;50.966;6.878;2023-07-31T15:08:34;3.47;;;2.03;;